Time;durP1;ratioP1;P1;durP2;ratioP2;P2;SDS_P1;SDS_P2;PMS_P1;PMS_P2;Temp;Humidity;BMP_temperature;BMP_pressure;BME280_temperature;BME280_humidity;BME280_pressure;Samples;Min_cycle;Max_cycle;Signal;HPM_P1;HPM_P2
2021/05/22 00:00:52;;;;;;;0.77;0.50;;;;;;;;;;5094328;28;20408;-75
2021/05/22 00:03:18;;;;;;;0.80;0.50;;;;;;;;;;5112588;28;20431;-75
2021/05/22 00:05:44;;;;;;;0.97;0.63;;;;;;;;;;5094550;28;20404;-75
2021/05/22 00:08:10;;;;;;;0.90;0.60;;;;;;;;;;5110984;28;20402;-75
2021/05/22 00:10:36;;;;;;;0.93;0.83;;;;;;;;;;5073775;28;20868;-75
2021/05/22 00:13:02;;;;;;;1.40;1.30;;;;;;;;;;5091913;28;20421;-75
2021/05/22 00:15:30;;;;;;;1.27;0.87;;;;;;;;;;5092124;28;20405;-74
2021/05/22 00:17:56;;;;;;;0.70;0.50;;;;;;;;;;5092105;28;21102;-75
2021/05/22 00:20:24;;;;;;;0.90;0.77;;;;;;;;;;5073695;28;20434;-75
2021/05/22 00:22:50;;;;;;;0.70;0.50;;;;;;;;;;5073930;28;20438;-75
2021/05/22 00:25:16;;;;;;;0.97;0.73;;;;;;;;;;5074166;28;20436;-75
2021/05/22 00:27:42;;;;;;;0.80;0.60;;;;;;;;;;5073663;28;20409;-75
2021/05/22 00:30:10;;;;;;;1.10;0.67;;;;;;;;;;5109170;28;20640;-75
2021/05/22 00:32:36;;;;;;;0.80;0.50;;;;;;;;;;5112218;28;20440;-75
2021/05/22 00:35:02;;;;;;;2.50;2.40;;;;;;;;;;5112153;28;20475;-75
2021/05/22 00:37:28;;;;;;;0.80;0.60;;;;;;;;;;5093835;28;20489;-74
2021/05/22 00:39:57;;;;;;;0.70;0.50;;;;;;;;;;5093355;28;20400;-75
2021/05/22 00:42:26;;;;;;;0.70;0.40;;;;;;;;;;5093852;28;20439;-75
2021/05/22 00:45:04;;;;;;;0.70;0.50;;;;;;;;;;5111992;28;20407;-74
2021/05/22 00:47:32;;;;;;;0.70;0.57;;;;;;;;;;5111999;28;20377;-74
2021/05/22 00:49:58;;;;;;;0.70;0.57;;;;;;;;;;5111602;28;20448;-74
2021/05/22 00:52:24;;;;;;;4.53;1.10;;;;;;;;;;5093788;28;20423;-75
2021/05/22 00:54:50;;;;;;;1.00;0.63;;;;;;;;;;5071913;28;20422;-73
2021/05/22 00:57:19;;;;;;;0.80;0.60;;;;;;;;;;5091493;28;20455;-74
2021/05/22 00:59:46;;;;;;;0.80;0.53;;;;;;;;;;5091239;28;20386;-73
2021/05/22 01:02:14;;;;;;;0.70;0.50;;;;;;;;;;5091334;28;20427;-74
2021/05/22 01:04:40;;;;;;;0.77;0.47;;;;;;;;;;5091344;28;20403;-73
2021/05/22 01:07:08;;;;;;;1.20;0.87;;;;;;;;;;5091366;28;20495;-74
2021/05/22 01:09:34;;;;;;;0.70;0.40;;;;;;;;;;5090821;28;20448;-74
2021/05/22 01:12:04;;;;;;;0.90;0.70;;;;;;;;;;5091153;28;20394;-74
2021/05/22 01:14:34;;;;;;;1.07;0.80;;;;;;;;;;5073055;28;20404;-74
2021/05/22 01:17:00;;;;;;;0.70;0.40;;;;;;;;;;5073384;28;20972;-72
2021/05/22 01:19:37;;;;;;;1.23;1.03;;;;;;;;;;5091017;28;20836;-73
2021/05/22 01:22:04;;;;;;;0.70;0.50;;;;;;;;;;5091265;28;20404;-73
2021/05/22 01:24:31;;;;;;;0.90;0.53;;;;;;;;;;5091312;28;20471;-72
2021/05/22 01:26:57;;;;;;;0.70;0.40;;;;;;;;;;5093682;28;20458;-77
2021/05/22 01:29:23;;;;;;;1.10;0.80;;;;;;;;;;5082286;28;20456;-79
2021/05/22 01:31:49;;;;;;;0.80;0.63;;;;;;;;;;5080836;28;20405;-77
2021/05/22 01:34:16;;;;;;;0.80;0.60;;;;;;;;;;5080479;28;20409;-77
2021/05/22 01:36:41;;;;;;;0.70;0.60;;;;;;;;;;5099583;28;20428;-78
2021/05/22 01:39:10;;;;;;;0.70;0.40;;;;;;;;;;5098604;28;20963;-78
2021/05/22 01:41:36;;;;;;;1.60;0.77;;;;;;;;;;5079535;28;20807;-78
2021/05/22 01:44:04;;;;;;;0.70;0.40;;;;;;;;;;5098397;28;20413;-76
2021/05/22 01:46:32;;;;;;;0.70;0.50;;;;;;;;;;5098152;28;20415;-77
2021/05/22 01:48:58;;;;;;;5.70;0.70;;;;;;;;;;5079619;28;20413;-77
2021/05/22 01:51:25;;;;;;;0.80;0.50;;;;;;;;;;5098502;28;20393;-77
2021/05/22 01:53:51;;;;;;;0.77;0.67;;;;;;;;;;5081413;28;20436;-77
2021/05/22 01:56:19;;;;;;;0.70;0.40;;;;;;;;;;5059046;28;20504;-74
2021/05/22 01:58:45;;;;;;;0.70;0.40;;;;;;;;;;5056903;28;20421;-75
2021/05/22 02:01:12;;;;;;;0.80;0.60;;;;;;;;;;5074485;28;20907;-75
2021/05/22 02:03:47;;;;;;;0.70;0.50;;;;;;;;;;5074763;28;20437;-75
2021/05/22 02:06:27;;;;;;;1.83;0.83;;;;;;;;;;5074564;28;20398;-74
2021/05/22 02:08:57;;;;;;;0.80;0.70;;;;;;;;;;5082350;28;20405;-74
2021/05/22 02:11:25;;;;;;;0.70;0.40;;;;;;;;;;5095053;28;20418;-74
2021/05/22 02:13:51;;;;;;;0.70;0.50;;;;;;;;;;5094849;28;20410;-74
2021/05/22 02:16:21;;;;;;;0.73;0.53;;;;;;;;;;5094732;28;20434;-72
2021/05/22 02:18:47;;;;;;;0.77;0.50;;;;;;;;;;5094606;28;20794;-72
2021/05/22 02:21:13;;;;;;;0.70;0.53;;;;;;;;;;5094353;28;20436;-72
2021/05/22 02:23:44;;;;;;;0.70;0.40;;;;;;;;;;5094377;28;20432;-72
2021/05/22 02:26:10;;;;;;;1.00;0.70;;;;;;;;;;5094409;28;20402;-72
2021/05/22 02:28:39;;;;;;;0.70;0.40;;;;;;;;;;5094195;28;20413;-72
2021/05/22 02:31:05;;;;;;;0.80;0.50;;;;;;;;;;5093723;28;20452;-71
2021/05/22 02:33:32;;;;;;;0.90;0.70;;;;;;;;;;5093948;28;20402;-72
2021/05/22 02:35:58;;;;;;;1.03;0.57;;;;;;;;;;5093879;28;20404;-72
2021/05/22 02:38:42;;;;;;;0.80;0.53;;;;;;;;;;5075802;28;20412;-72
2021/05/22 02:41:11;;;;;;;0.80;0.67;;;;;;;;;;5092582;28;20814;-71
2021/05/22 02:43:38;;;;;;;1.03;0.60;;;;;;;;;;5092882;28;20417;-71
2021/05/22 02:46:05;;;;;;;0.80;0.80;;;;;;;;;;5094005;28;20412;-72
2021/05/22 02:48:36;;;;;;;0.70;0.50;;;;;;;;;;5094108;28;20424;-72
2021/05/22 02:51:03;;;;;;;0.70;0.50;;;;;;;;;;5074819;28;20460;-72
2021/05/22 02:53:30;;;;;;;0.70;0.60;;;;;;;;;;5093779;28;20428;-72
2021/05/22 02:55:58;;;;;;;2.60;0.63;;;;;;;;;;5074873;28;20826;-72
2021/05/22 02:58:27;;;;;;;0.70;0.40;;;;;;;;;;5093674;28;20818;-72
2021/05/22 03:00:53;;;;;;;0.70;0.40;;;;;;;;;;5093264;28;20459;-71
2021/05/22 03:03:20;;;;;;;0.70;0.47;;;;;;;;;;5093406;28;20425;-71
2021/05/22 03:05:46;;;;;;;0.70;0.50;;;;;;;;;;5093288;28;20763;-72
2021/05/22 03:08:12;;;;;;;2.70;0.97;;;;;;;;;;5093273;28;20481;-72
2021/05/22 03:10:38;;;;;;;0.80;0.50;;;;;;;;;;5093004;28;20826;-72
2021/05/22 03:13:07;;;;;;;0.80;0.50;;;;;;;;;;5093382;28;20413;-74
2021/05/22 03:15:33;;;;;;;0.90;0.63;;;;;;;;;;5093647;28;20409;-73
2021/05/22 03:17:59;;;;;;;1.43;1.33;;;;;;;;;;5096729;28;20932;-74
2021/05/22 03:20:25;;;;;;;0.70;0.60;;;;;;;;;;5098428;28;20405;-73
2021/05/22 03:22:51;;;;;;;1.20;0.77;;;;;;;;;;5081114;28;20547;-74
2021/05/22 03:25:17;;;;;;;0.70;0.40;;;;;;;;;;5079433;28;20416;-75
2021/05/22 03:27:43;;;;;;;0.80;0.50;;;;;;;;;;5097087;28;20406;-73
2021/05/22 03:30:10;;;;;;;0.93;0.87;;;;;;;;;;5077904;28;20453;-75
2021/05/22 03:32:36;;;;;;;0.90;0.87;;;;;;;;;;5097326;28;20417;-75
2021/05/22 03:35:06;;;;;;;0.70;0.50;;;;;;;;;;5096377;28;20397;-74
2021/05/22 03:37:32;;;;;;;0.80;0.53;;;;;;;;;;5096300;28;20394;-75
2021/05/22 03:39:58;;;;;;;0.70;0.40;;;;;;;;;;5095091;28;20402;-75
2021/05/22 03:42:24;;;;;;;1.00;0.50;;;;;;;;;;5093417;28;20747;-75
2021/05/22 03:44:50;;;;;;;0.80;0.60;;;;;;;;;;5092662;28;20811;-73
2021/05/22 03:47:18;;;;;;;0.90;0.80;;;;;;;;;;5074551;28;20454;-73
2021/05/22 03:49:44;;;;;;;0.80;0.50;;;;;;;;;;5091211;28;20565;-72
2021/05/22 03:52:10;;;;;;;0.80;0.50;;;;;;;;;;5073603;28;20429;-71
2021/05/22 03:54:38;;;;;;;1.00;0.60;;;;;;;;;;5093022;28;20896;-76
2021/05/22 03:57:04;;;;;;;1.20;1.10;;;;;;;;;;5092379;28;20405;-73
2021/05/22 03:59:33;;;;;;;1.33;0.80;;;;;;;;;;5074261;28;20413;-75
2021/05/22 04:01:59;;;;;;;3.60;1.33;;;;;;;;;;5092487;28;20383;-75
2021/05/22 04:04:24;;;;;;;1.33;0.50;;;;;;;;;;5092119;28;20393;-71
2021/05/22 04:06:53;;;;;;;0.70;0.50;;;;;;;;;;5073699;28;20432;-74
2021/05/22 04:09:19;;;;;;;0.87;0.50;;;;;;;;;;5091474;28;20469;-72
2021/05/22 04:11:45;;;;;;;1.40;0.60;;;;;;;;;;5092076;28;20387;-72
2021/05/22 04:14:13;;;;;;;0.70;0.50;;;;;;;;;;5091927;28;20428;-72
2021/05/22 04:16:41;;;;;;;0.70;0.50;;;;;;;;;;5091113;28;20444;-73
2021/05/22 04:19:07;;;;;;;1.00;0.80;;;;;;;;;;5091537;28;20432;-72
2021/05/22 04:21:33;;;;;;;0.83;0.40;;;;;;;;;;5088092;28;20433;-73
2021/05/22 04:24:02;;;;;;;0.70;0.43;;;;;;;;;;5080629;28;20452;-73
2021/05/22 04:26:28;;;;;;;0.90;0.60;;;;;;;;;;5083044;28;20971;-76
2021/05/22 04:28:54;;;;;;;0.80;0.60;;;;;;;;;;5081683;28;20402;-74
2021/05/22 04:31:20;;;;;;;1.00;0.60;;;;;;;;;;5080747;28;20456;-75
2021/05/22 04:33:46;;;;;;;0.70;0.50;;;;;;;;;;5081744;28;20410;-75
2021/05/22 04:36:12;;;;;;;0.70;0.40;;;;;;;;;;5061792;28;20433;-74
2021/05/22 04:38:37;;;;;;;0.70;0.50;;;;;;;;;;5083043;28;20922;-74
2021/05/22 04:41:03;;;;;;;1.33;0.70;;;;;;;;;;5066903;28;20401;-75
2021/05/22 04:43:30;;;;;;;0.70;0.40;;;;;;;;;;5068572;28;20773;-75
2021/05/22 04:45:58;;;;;;;0.70;0.43;;;;;;;;;;5081314;28;20410;-75
2021/05/22 04:48:24;;;;;;;0.97;0.77;;;;;;;;;;5082852;28;20478;-78
2021/05/22 04:50:50;;;;;;;1.00;0.67;;;;;;;;;;5086563;28;20477;-77
2021/05/22 04:53:16;;;;;;;0.70;0.40;;;;;;;;;;5069410;28;20481;-78
2021/05/22 04:55:42;;;;;;;0.90;0.50;;;;;;;;;;5083293;28;20406;-73
2021/05/22 04:58:07;;;;;;;0.70;0.50;;;;;;;;;;5081293;28;20420;-73
2021/05/22 05:00:33;;;;;;;0.90;0.57;;;;;;;;;;5080723;28;20408;-73
2021/05/22 05:02:59;;;;;;;0.70;0.50;;;;;;;;;;5081793;28;20464;-75
2021/05/22 05:05:25;;;;;;;0.90;0.60;;;;;;;;;;5078744;28;20432;-77
2021/05/22 05:07:54;;;;;;;11.93;1.13;;;;;;;;;;5066784;28;20851;-78
2021/05/22 05:10:20;;;;;;;0.70;0.50;;;;;;;;;;5087784;28;20813;-75
2021/05/22 05:12:46;;;;;;;0.90;0.50;;;;;;;;;;5068168;28;20419;-75
2021/05/22 05:15:12;;;;;;;0.70;0.50;;;;;;;;;;5087805;28;20393;-75
2021/05/22 05:17:41;;;;;;;3.37;1.97;;;;;;;;;;5062865;28;20385;-75
2021/05/22 05:20:07;;;;;;;1.00;0.50;;;;;;;;;;5074487;28;20404;-75
2021/05/22 05:22:33;;;;;;;0.70;0.40;;;;;;;;;;5074523;28;20421;-75
2021/05/22 05:25:01;;;;;;;0.70;0.40;;;;;;;;;;5056877;28;20436;-75
2021/05/22 05:27:30;;;;;;;0.70;0.50;;;;;;;;;;5074948;28;20425;-75
2021/05/22 05:29:56;;;;;;;4.10;0.67;;;;;;;;;;5106306;28;20417;-75
2021/05/22 05:32:22;;;;;;;2.83;0.90;;;;;;;;;;5097260;28;20495;-75
2021/05/22 05:34:50;;;;;;;0.70;0.47;;;;;;;;;;5115357;28;20367;-74
2021/05/22 05:37:16;;;;;;;0.70;0.40;;;;;;;;;;5097496;28;20427;-75
2021/05/22 05:39:42;;;;;;;0.70;0.50;;;;;;;;;;5115124;28;20389;-74
2021/05/22 05:42:08;;;;;;;0.70;0.40;;;;;;;;;;5096635;28;20447;-74
2021/05/22 05:44:34;;;;;;;0.70;0.50;;;;;;;;;;5115115;28;20431;-74
2021/05/22 05:47:05;;;;;;;3.13;1.70;;;;;;;;;;5096870;28;20925;-75
2021/05/22 05:49:31;;;;;;;0.80;0.60;;;;;;;;;;5096458;28;20458;-75
2021/05/22 05:51:57;;;;;;;0.70;0.50;;;;;;;;;;5113663;22;20491;-72
2021/05/22 05:54:23;;;;;;;0.70;0.40;;;;;;;;;;5082519;28;20467;-72
2021/05/22 05:56:49;;;;;;;1.33;0.60;;;;;;;;;;5100369;28;20389;-73
2021/05/22 05:59:17;;;;;;;0.70;0.50;;;;;;;;;;5099070;28;20404;-73
2021/05/22 06:01:43;;;;;;;0.70;0.40;;;;;;;;;;5099824;28;20833;-73
2021/05/22 06:04:09;;;;;;;0.80;0.50;;;;;;;;;;5110879;22;20597;-72
2021/05/22 06:06:35;;;;;;;0.70;0.50;;;;;;;;;;5094018;28;20409;-73
2021/05/22 06:09:02;;;;;;;1.23;0.63;;;;;;;;;;5075131;28;20380;-74
2021/05/22 06:11:30;;;;;;;0.70;0.40;;;;;;;;;;5093593;28;20433;-74
2021/05/22 06:13:56;;;;;;;0.77;0.47;;;;;;;;;;5074888;28;20396;-74
2021/05/22 06:16:30;;;;;;;0.70;0.50;;;;;;;;;;5090133;28;20436;-74
2021/05/22 06:18:56;;;;;;;0.73;0.50;;;;;;;;;;5091004;28;20462;-74
2021/05/22 06:21:24;;;;;;;0.80;0.50;;;;;;;;;;5086559;28;20426;-75
2021/05/22 06:23:50;;;;;;;0.80;0.60;;;;;;;;;;5100027;28;20413;-75
2021/05/22 06:26:16;;;;;;;1.10;0.60;;;;;;;;;;5093847;28;20412;-75
2021/05/22 06:28:43;;;;;;;0.70;0.40;;;;;;;;;;5099945;28;20403;-75
2021/05/22 06:31:08;;;;;;;0.90;0.57;;;;;;;;;;5101428;28;20546;-75
2021/05/22 06:33:35;;;;;;;0.70;0.50;;;;;;;;;;5103941;28;20442;-75
2021/05/22 06:36:01;;;;;;;0.80;0.70;;;;;;;;;;5082837;28;20413;-75
2021/05/22 06:38:28;;;;;;;0.70;0.40;;;;;;;;;;5080245;28;20440;-75
2021/05/22 06:40:54;;;;;;;0.70;0.50;;;;;;;;;;5097865;28;20565;-74
2021/05/22 06:43:20;;;;;;;0.80;0.60;;;;;;;;;;5097789;28;20415;-73
2021/05/22 06:45:57;;;;;;;0.80;0.67;;;;;;;;;;5098948;28;20487;-73
2021/05/22 06:48:23;;;;;;;0.70;0.47;;;;;;;;;;5077644;28;20408;-75
2021/05/22 06:50:49;;;;;;;0.80;0.60;;;;;;;;;;5098645;28;20865;-74
2021/05/22 06:53:15;;;;;;;0.80;0.53;;;;;;;;;;5098171;28;20766;-75
2021/05/22 06:55:41;;;;;;;0.70;0.40;;;;;;;;;;5098687;28;20412;-75
2021/05/22 06:58:10;;;;;;;1.00;0.60;;;;;;;;;;5099250;28;20403;-75
2021/05/22 07:00:36;;;;;;;0.70;0.50;;;;;;;;;;5098183;28;20458;-75
2021/05/22 07:03:02;;;;;;;0.90;0.60;;;;;;;;;;5098236;28;20403;-75
2021/05/22 07:05:28;;;;;;;0.70;0.40;;;;;;;;;;5095128;28;20379;-73
2021/05/22 07:07:55;;;;;;;1.00;0.50;;;;;;;;;;5112005;28;20400;-74
2021/05/22 07:10:21;;;;;;;4.30;3.07;;;;;;;;;;5116360;28;20403;-75
2021/05/22 07:12:47;;;;;;;7.20;0.70;;;;;;;;;;5117326;28;20379;-72
2021/05/22 07:15:15;;;;;;;1.93;0.77;;;;;;;;;;5112371;28;20433;-75
2021/05/22 07:17:41;;;;;;;0.70;0.40;;;;;;;;;;5100925;28;20407;-79
2021/05/22 07:20:08;;;;;;;0.70;0.40;;;;;;;;;;5111832;28;20453;-81
2021/05/22 07:22:34;;;;;;;2.60;1.90;;;;;;;;;;5107068;28;20415;-79
2021/05/22 07:25:00;;;;;;;0.93;0.80;;;;;;;;;;5085529;28;20441;-78
2021/05/22 07:27:27;;;;;;;0.70;0.50;;;;;;;;;;5084518;28;20411;-78
2021/05/22 07:29:53;;;;;;;1.43;0.60;;;;;;;;;;5085811;28;20455;-76
2021/05/22 07:32:19;;;;;;;0.80;0.50;;;;;;;;;;5097533;28;20413;-78
2021/05/22 07:34:48;;;;;;;0.70;0.50;;;;;;;;;;5081001;28;20446;-78
2021/05/22 07:37:14;;;;;;;1.00;0.50;;;;;;;;;;5069634;28;20495;-79
2021/05/22 07:39:40;;;;;;;0.70;0.40;;;;;;;;;;5072137;28;20379;-77
2021/05/22 07:42:06;;;;;;;0.77;0.53;;;;;;;;;;5093364;28;20467;-79
2021/05/22 07:44:34;;;;;;;0.70;0.50;;;;;;;;;;5073886;28;20404;-78
2021/05/22 07:47:00;;;;;;;0.70;0.40;;;;;;;;;;5087424;28;20884;-77
2021/05/22 07:49:37;;;;;;;0.70;0.60;;;;;;;;;;5087505;28;20450;-79
2021/05/22 07:52:04;;;;;;;0.70;0.53;;;;;;;;;;5068587;28;20406;-78
2021/05/22 07:54:30;;;;;;;0.80;0.70;;;;;;;;;;5083231;28;20398;-79
2021/05/22 07:56:58;;;;;;;0.80;0.50;;;;;;;;;;5070127;28;20444;-79
2021/05/22 07:59:24;;;;;;;0.70;0.40;;;;;;;;;;5081827;28;20380;-78
2021/05/22 08:01:50;;;;;;;0.70;0.50;;;;;;;;;;5082784;28;20742;-77
2021/05/22 08:04:16;;;;;;;0.70;0.40;;;;;;;;;;5080414;28;20428;-77
2021/05/22 08:06:42;;;;;;;1.47;0.60;;;;;;;;;;5081024;28;20902;-77
2021/05/22 08:09:11;;;;;;;0.70;0.40;;;;;;;;;;5081746;28;20413;-78
2021/05/22 08:11:37;;;;;;;6.87;0.80;;;;;;;;;;5072874;28;20783;-74
2021/05/22 08:14:03;;;;;;;0.70;0.47;;;;;;;;;;5070571;28;20394;-73
2021/05/22 08:16:33;;;;;;;0.83;0.60;;;;;;;;;;5071232;28;20394;-72
2021/05/22 08:18:59;;;;;;;0.70;0.50;;;;;;;;;;5052815;28;20414;-72
2021/05/22 08:21:25;;;;;;;0.70;0.50;;;;;;;;;;5073503;28;20395;-72
2021/05/22 08:23:51;;;;;;;0.70;0.50;;;;;;;;;;5076907;28;20395;-73
2021/05/22 08:26:17;;;;;;;0.80;0.50;;;;;;;;;;5082597;28;20384;-73
2021/05/22 08:28:47;;;;;;;0.70;0.40;;;;;;;;;;5078648;28;20449;-74
2021/05/22 08:31:15;;;;;;;0.80;0.50;;;;;;;;;;5086080;28;20791;-76
2021/05/22 08:33:41;;;;;;;1.50;0.80;;;;;;;;;;5086240;28;20412;-74
2021/05/22 08:36:07;;;;;;;0.70;0.40;;;;;;;;;;5067061;28;20413;-76
2021/05/22 08:38:33;;;;;;;0.70;0.40;;;;;;;;;;5067412;28;20404;-74
2021/05/22 08:41:01;;;;;;;0.80;0.60;;;;;;;;;;5078624;28;20764;-73
2021/05/22 08:43:27;;;;;;;1.00;0.87;;;;;;;;;;5066051;28;20412;-74
2021/05/22 08:45:53;;;;;;;1.10;0.53;;;;;;;;;;5083250;28;20535;-74
2021/05/22 08:48:20;;;;;;;0.80;0.50;;;;;;;;;;5066207;28;20421;-73
2021/05/22 08:50:46;;;;;;;0.90;0.70;;;;;;;;;;5054722;28;20458;-73
2021/05/22 08:53:14;;;;;;;0.70;0.40;;;;;;;;;;5090967;28;20875;-73
2021/05/22 08:55:40;;;;;;;0.70;0.40;;;;;;;;;;5085621;28;20407;-74
2021/05/22 08:58:06;;;;;;;0.80;0.50;;;;;;;;;;5064454;28;20447;-74
2021/05/22 09:00:38;;;;;;;0.87;0.80;;;;;;;;;;5084608;28;20425;-73
2021/05/22 09:03:05;;;;;;;0.93;0.67;;;;;;;;;;5089449;28;20485;-73
2021/05/22 09:05:31;;;;;;;1.30;1.20;;;;;;;;;;5090658;28;20401;-73
2021/05/22 09:07:58;;;;;;;1.53;1.23;;;;;;;;;;5072438;28;20433;-74
2021/05/22 09:10:37;;;;;;;0.70;0.60;;;;;;;;;;5089826;28;20455;-74
2021/05/22 09:13:23;;;;;;;1.00;0.70;;;;;;;;;;5090421;28;20400;-73
2021/05/22 09:15:56;;;;;;;0.70;0.50;;;;;;;;;;5081893;28;20446;-73
2021/05/22 09:18:24;;;;;;;0.73;0.50;;;;;;;;;;5065611;28;20843;-74
2021/05/22 09:20:50;;;;;;;0.70;0.40;;;;;;;;;;5079448;28;20429;-73
2021/05/22 09:23:36;;;;;;;0.80;0.50;;;;;;;;;;5063731;28;20763;-73
2021/05/22 09:26:05;;;;;;;1.20;0.77;;;;;;;;;;5090326;28;20801;-74
2021/05/22 09:28:38;;;;;;;0.70;0.50;;;;;;;;;;5090541;28;20401;-74
2021/05/22 09:31:05;;;;;;;0.70;0.50;;;;;;;;;;5090128;28;20479;-72
2021/05/22 09:33:35;;;;;;;0.70;0.40;;;;;;;;;;5084290;28;20485;-71
2021/05/22 09:36:07;;;;;;;0.70;0.50;;;;;;;;;;5061564;28;20407;-72
2021/05/22 09:38:38;;;;;;;0.70;0.40;;;;;;;;;;5090530;28;20482;-73
2021/05/22 09:41:14;;;;;;;0.70;0.40;;;;;;;;;;5089691;28;20808;-73
2021/05/22 09:43:43;;;;;;;3.73;0.97;;;;;;;;;;5072815;28;20920;-73
2021/05/22 09:46:10;;;;;;;2.90;0.60;;;;;;;;;;5054283;28;20429;-73
2021/05/22 09:48:37;;;;;;;0.70;0.50;;;;;;;;;;5081399;28;20412;-73
2021/05/22 09:51:04;;;;;;;2.20;0.60;;;;;;;;;;5086196;28;20918;-73
2021/05/22 09:53:31;;;;;;;0.70;0.50;;;;;;;;;;5083113;28;20481;-72
2021/05/22 09:56:07;;;;;;;0.70;0.50;;;;;;;;;;5078999;28;20743;-74
2021/05/22 09:58:34;;;;;;;0.90;0.80;;;;;;;;;;5089775;28;20456;-73
2021/05/22 10:01:00;;;;;;;0.80;0.50;;;;;;;;;;5082067;28;20509;-72
2021/05/22 10:03:26;;;;;;;1.00;0.87;;;;;;;;;;5066082;28;20472;-73
2021/05/22 10:05:53;;;;;;;0.70;0.60;;;;;;;;;;5081604;28;20404;-73
2021/05/22 10:08:19;;;;;;;1.40;0.83;;;;;;;;;;5084806;28;20405;-73
2021/05/22 10:10:47;;;;;;;0.80;0.60;;;;;;;;;;5082030;28;20969;-73
2021/05/22 10:13:15;;;;;;;0.70;0.50;;;;;;;;;;5065761;28;20415;-72
2021/05/22 10:15:41;;;;;;;0.90;0.60;;;;;;;;;;5087378;28;20904;-75
2021/05/22 10:18:07;;;;;;;0.93;0.80;;;;;;;;;;5089934;28;20489;-75
2021/05/22 10:20:36;;;;;;;0.70;0.40;;;;;;;;;;5082812;28;20503;-73
2021/05/22 10:23:02;;;;;;;0.83;0.60;;;;;;;;;;5082030;28;20894;-74
2021/05/22 10:25:28;;;;;;;0.70;0.40;;;;;;;;;;5083438;28;20414;-73
2021/05/22 10:27:54;;;;;;;0.70;0.50;;;;;;;;;;5086225;28;20367;-73
2021/05/22 10:30:21;;;;;;;0.80;0.50;;;;;;;;;;5083615;28;20539;-74
2021/05/22 10:32:47;;;;;;;0.77;0.63;;;;;;;;;;5087704;28;20418;-76
2021/05/22 10:35:15;;;;;;;0.90;0.70;;;;;;;;;;5087015;28;20406;-76
2021/05/22 10:37:41;;;;;;;0.70;0.40;;;;;;;;;;5081797;28;20402;-75
2021/05/22 10:40:10;;;;;;;0.70;0.40;;;;;;;;;;5063246;28;20506;-74
2021/05/22 10:42:36;;;;;;;1.33;0.50;;;;;;;;;;5083485;28;20498;-74
2021/05/22 10:45:21;;;;;;;6.23;1.13;;;;;;;;;;5082539;28;21104;-76
2021/05/22 10:47:47;;;;;;;0.70;0.50;;;;;;;;;;5087043;28;20482;-78
2021/05/22 10:50:13;;;;;;;0.70;0.40;;;;;;;;;;5073615;28;20508;-79
2021/05/22 10:52:39;;;;;;;0.77;0.57;;;;;;;;;;5089053;28;20464;-77
2021/05/22 10:55:10;;;;;;;0.70;0.40;;;;;;;;;;5065561;28;20430;-76
2021/05/22 10:57:49;;;;;;;1.63;0.50;;;;;;;;;;5086638;28;20394;-84
2021/05/22 11:00:19;;;;;;;1.27;0.70;;;;;;;;;;5068501;28;20408;-72
2021/05/22 11:02:51;;;;;;;0.80;0.50;;;;;;;;;;5063479;28;20865;-73
2021/05/22 11:08:12;;;;;;;0.70;0.50;;;;;;;;;;5085596;28;20480;-74
2021/05/22 11:10:41;;;;;;;0.80;0.60;;;;;;;;;;5047171;28;20455;-74
2021/05/22 11:13:08;;;;;;;0.80;0.60;;;;;;;;;;5083230;28;20469;-73
2021/05/22 11:15:50;;;;;;;2.47;0.50;;;;;;;;;;5085573;28;20404;-73
2021/05/22 11:18:16;;;;;;;0.70;0.50;;;;;;;;;;5064478;28;20766;-73
2021/05/22 11:20:44;;;;;;;2.20;0.50;;;;;;;;;;5062877;28;20400;-74
2021/05/22 11:23:10;;;;;;;0.80;0.80;;;;;;;;;;5055763;28;20417;-75
2021/05/22 11:25:51;;;;;;;0.83;0.70;;;;;;;;;;5077323;28;20783;-74
2021/05/22 11:28:19;;;;;;;0.80;0.50;;;;;;;;;;5083093;28;20495;-74
2021/05/22 11:30:56;;;;;;;0.70;0.40;;;;;;;;;;5062278;28;20479;-74
2021/05/22 11:33:22;;;;;;;1.00;0.50;;;;;;;;;;5080875;28;20393;-74
2021/05/22 11:35:51;;;;;;;0.70;0.40;;;;;;;;;;5065389;28;20399;-74
2021/05/22 11:38:17;;;;;;;0.70;0.50;;;;;;;;;;5059518;28;20496;-74
2021/05/22 11:40:44;;;;;;;0.80;0.60;;;;;;;;;;5065260;28;20438;-73
2021/05/22 11:43:16;;;;;;;0.70;0.40;;;;;;;;;;5082213;28;20375;-75
2021/05/22 11:45:43;;;;;;;0.87;0.60;;;;;;;;;;5082790;28;20418;-73
2021/05/22 11:48:27;;;;;;;0.70;0.40;;;;;;;;;;5064907;28;20414;-72
2021/05/22 11:50:55;;;;;;;0.90;0.60;;;;;;;;;;5091888;28;20436;-70
2021/05/22 11:53:20;;;;;;;1.10;0.87;;;;;;;;;;5074344;28;20910;-75
2021/05/22 11:55:56;;;;;;;0.87;0.57;;;;;;;;;;5130799;22;20494;-72
2021/05/22 11:58:23;;;;;;;0.80;0.50;;;;;;;;;;5071509;28;20411;-73
2021/05/22 12:00:49;;;;;;;0.70;0.40;;;;;;;;;;5053001;28;20915;-72
2021/05/22 12:03:28;;;;;;;1.07;0.80;;;;;;;;;;5053505;28;20430;-72
2021/05/22 12:05:55;;;;;;;0.70;0.50;;;;;;;;;;5071560;28;20419;-72
2021/05/22 12:08:28;;;;;;;0.80;0.60;;;;;;;;;;5071303;28;20795;-72
2021/05/22 12:10:54;;;;;;;1.97;0.80;;;;;;;;;;5075297;28;20434;-72
2021/05/22 12:13:20;;;;;;;1.17;0.67;;;;;;;;;;5074967;28;20489;-72
2021/05/22 12:15:47;;;;;;;0.70;0.43;;;;;;;;;;5071193;28;20394;-72
2021/05/22 12:18:15;;;;;;;0.80;0.60;;;;;;;;;;5061700;28;20533;-73
2021/05/22 12:20:44;;;;;;;0.90;0.70;;;;;;;;;;5070305;28;20485;-72
2021/05/22 12:23:22;;;;;;;2.60;0.60;;;;;;;;;;5070963;28;20414;-71
2021/05/22 12:25:48;;;;;;;1.10;0.67;;;;;;;;;;5069309;28;20387;-72
2021/05/22 12:28:14;;;;;;;0.80;0.57;;;;;;;;;;5070486;28;20974;-73
2021/05/22 12:30:40;;;;;;;1.03;0.93;;;;;;;;;;5070093;28;20512;-72
2021/05/22 12:33:10;;;;;;;0.70;0.50;;;;;;;;;;5070941;28;20403;-72
2021/05/22 12:35:36;;;;;;;0.93;0.50;;;;;;;;;;5091028;28;20455;-71
2021/05/22 12:38:02;;;;;;;0.70;0.50;;;;;;;;;;5090819;28;20456;-72
2021/05/22 12:40:28;;;;;;;0.70;0.50;;;;;;;;;;5081551;28;20869;-71
2021/05/22 12:42:54;;;;;;;0.70;0.53;;;;;;;;;;5078442;28;20582;-73
2021/05/22 12:45:22;;;;;;;0.90;0.60;;;;;;;;;;5052665;28;20501;-73
2021/05/22 12:47:49;;;;;;;0.70;0.40;;;;;;;;;;5078807;28;20809;-72
2021/05/22 12:50:25;;;;;;;0.70;0.40;;;;;;;;;;5082586;28;20448;-73
2021/05/22 12:52:55;;;;;;;0.80;0.50;;;;;;;;;;5079566;28;20490;-72
2021/05/22 12:55:26;;;;;;;0.93;0.50;;;;;;;;;;5077437;28;20395;-72
2021/05/22 12:57:52;;;;;;;0.70;0.60;;;;;;;;;;5078994;28;20450;-72
2021/05/22 13:00:19;;;;;;;0.70;0.50;;;;;;;;;;5084296;28;20433;-73
2021/05/22 13:02:48;;;;;;;0.80;0.50;;;;;;;;;;5090636;28;20402;-72
2021/05/22 13:05:14;;;;;;;1.10;0.90;;;;;;;;;;5075457;28;20382;-72
2021/05/22 13:07:47;;;;;;;1.20;0.90;;;;;;;;;;5085563;28;20493;-72
2021/05/22 13:10:14;;;;;;;0.80;0.70;;;;;;;;;;5069153;28;21032;-73
2021/05/22 13:12:57;;;;;;;1.00;0.70;;;;;;;;;;5070488;28;20408;-72
2021/05/22 13:15:24;;;;;;;0.70;0.40;;;;;;;;;;5070509;28;20360;-72
2021/05/22 13:17:54;;;;;;;0.70;0.50;;;;;;;;;;5070408;28;20907;-69
2021/05/22 13:20:22;;;;;;;0.83;0.60;;;;;;;;;;5069657;28;20499;-71
2021/05/22 13:22:48;;;;;;;0.80;0.60;;;;;;;;;;5070720;28;20733;-70
2021/05/22 13:25:16;;;;;;;0.70;0.60;;;;;;;;;;5073431;28;20890;-71
2021/05/22 13:28:01;;;;;;;1.67;0.87;;;;;;;;;;5074458;28;20423;-69
2021/05/22 13:30:28;;;;;;;0.70;0.50;;;;;;;;;;5073960;28;20440;-71
2021/05/22 13:32:54;;;;;;;0.80;0.60;;;;;;;;;;5074042;28;20409;-72
2021/05/22 13:35:21;;;;;;;10.33;1.13;;;;;;;;;;5077271;28;20716;-70
2021/05/22 13:37:47;;;;;;;0.90;0.60;;;;;;;;;;5076387;28;20402;-71
2021/05/22 13:40:14;;;;;;;2.00;0.60;;;;;;;;;;5073625;28;20420;-71
2021/05/22 13:42:40;;;;;;;0.80;0.63;;;;;;;;;;5073894;28;20444;-70
2021/05/22 13:45:06;;;;;;;0.97;0.70;;;;;;;;;;5074135;28;20408;-70
2021/05/22 13:47:32;;;;;;;1.37;0.70;;;;;;;;;;5074024;28;20518;-71
2021/05/22 13:49:58;;;;;;;3.37;0.70;;;;;;;;;;5073074;28;20510;-72
2021/05/22 13:52:24;;;;;;;3.07;1.37;;;;;;;;;;5073817;28;20901;-73
2021/05/22 13:54:49;;;;;;;1.40;0.70;;;;;;;;;;5073778;28;20443;-71
2021/05/22 13:57:15;;;;;;;0.90;0.60;;;;;;;;;;5073527;28;20908;-71
2021/05/22 13:59:42;;;;;;;0.87;0.80;;;;;;;;;;5072921;28;20457;-72
2021/05/22 14:02:08;;;;;;;0.80;0.50;;;;;;;;;;5073948;28;20384;-71
2021/05/22 14:04:34;;;;;;;0.80;0.67;;;;;;;;;;5090905;22;20482;-68
2021/05/22 14:07:00;;;;;;;3.70;0.90;;;;;;;;;;5089513;28;20467;-69
2021/05/22 14:09:26;;;;;;;1.40;0.60;;;;;;;;;;5092285;28;20376;-69
2021/05/22 14:11:52;;;;;;;1.83;0.80;;;;;;;;;;5086592;28;20890;-70
2021/05/22 14:14:19;;;;;;;0.70;0.50;;;;;;;;;;5093575;28;20447;-69
2021/05/22 14:16:45;;;;;;;1.50;0.70;;;;;;;;;;5085266;28;20400;-69
2021/05/22 14:19:11;;;;;;;0.80;0.50;;;;;;;;;;5080692;28;20796;-69
2021/05/22 14:21:36;;;;;;;0.80;0.50;;;;;;;;;;5095804;28;20379;-70
2021/05/22 14:24:03;;;;;;;0.80;0.60;;;;;;;;;;5095828;28;20455;-69
2021/05/22 14:26:28;;;;;;;0.80;0.57;;;;;;;;;;5096570;28;20942;-69
2021/05/22 14:28:54;;;;;;;0.90;0.50;;;;;;;;;;5103276;28;20404;-68
2021/05/22 14:31:20;;;;;;;0.80;0.60;;;;;;;;;;5097528;28;20485;-68
2021/05/22 14:33:46;;;;;;;0.90;0.50;;;;;;;;;;5096818;28;20468;-69
2021/05/22 14:36:12;;;;;;;0.70;0.50;;;;;;;;;;5082380;28;20390;-70
2021/05/22 14:38:38;;;;;;;0.80;0.60;;;;;;;;;;5080010;28;20440;-69
2021/05/22 14:41:05;;;;;;;0.70;0.60;;;;;;;;;;5093970;28;20403;-69
2021/05/22 14:43:32;;;;;;;0.70;0.60;;;;;;;;;;5094057;28;20764;-69
2021/05/22 14:45:58;;;;;;;0.70;0.50;;;;;;;;;;5086003;28;20432;-69
2021/05/22 14:48:24;;;;;;;1.77;1.23;;;;;;;;;;5086152;28;20811;-68